Flight Track Log - Related Links

Times and Time Zones

All times are in EST time to prevent confusion due to time zone crossing. See the CSN6337 flight status page for this flight to view local times or setup timezone preferences in your user account.

Time Position Orientation Groundspeed Altitude Reporting Facility
EST Latitude Longitude Course Direction KTS MPH feet Rate Location/Type
Fri 09:44:00 PM 31.6483 118.7861 215° Southwest  Level Estimated
Fri 09:45:00 PM 31.5544 118.7103 215° Southwest  Level Estimated
Fri 09:46:00 PM 31.4605 118.6347 214° Southwest  Level Estimated
Fri 09:47:00 PM 31.3666 118.5592 214° Southwest  Level Estimated
Fri 09:48:00 PM 31.2726 118.4839 214° Southwest  Level Estimated
Fri 09:49:00 PM 31.1786 118.4087 214° Southwest  Level Estimated
Fri 09:50:00 PM 31.0845 118.3337 214° Southwest  Level Estimated
Fri 09:51:00 PM 30.9904 118.2588 214° Southwest  Level Estimated
Fri 09:52:00 PM 30.8962 118.1841 214° Southwest  Level Estimated
Fri 09:53:00 PM 30.8020 118.1095 214° Southwest  Level Estimated
Fri 09:54:00 PM 30.7078 118.0351 214° Southwest  Level Estimated
Fri 09:55:00 PM 30.6135 117.9608 214° Southwest  Level Estimated
Fri 09:56:00 PM 30.5192 117.8866 214° Southwest  Level Estimated
Fri 09:57:00 PM 30.4248 117.8126 214° Southwest  Level Estimated
Fri 09:58:00 PM 30.3304 117.7388 214° Southwest  Level Estimated
Fri 09:59:00 PM 30.2360 117.6650 214° Southwest  Level Estimated
Fri 10:00:00 PM 30.1415 117.5915 214° Southwest  Level Estimated
Fri 10:01:00 PM 30.0469 117.5180 214° Southwest  Level Estimated
Fri 10:02:00 PM 29.9524 117.4447 214° Southwest  Level Estimated
Fri 10:03:00 PM 29.8578 117.3716 214° Southwest  Level Estimated
Fri 10:04:00 PM 29.7631 117.2986 214° Southwest  Level Estimated
Fri 10:05:00 PM 29.6684 117.2257 214° Southwest  Level Estimated
Fri 10:06:00 PM 29.5737 117.1529 214° Southwest  Level Estimated
Fri 10:07:00 PM 29.4789 117.0803 214° Southwest  Level Estimated
Fri 10:08:00 PM 29.3841 117.0079 214° Southwest  Level Estimated
Fri 10:09:00 PM 29.2893 116.9355 214° Southwest  Level Estimated
Fri 10:10:00 PM 29.1944 116.8633 214° Southwest  Level Estimated
Fri 10:11:00 PM 29.0994 116.7913 214° Southwest  Level Estimated
Fri 10:12:00 PM 29.0045 116.7193 214° Southwest  Level Estimated
Fri 10:13:00 PM 28.9095 116.6475 213° Southwest  Level Estimated
Fri 10:14:00 PM 28.8144 116.5759 213° Southwest  Level Estimated
Fri 10:15:00 PM 28.7194 116.5043 213° Southwest  Level Estimated
Fri 10:16:00 PM 28.6242 116.4329 213° Southwest  Level Estimated
Fri 10:17:00 PM 28.5291 116.3616 213° Southwest  Level Estimated
Fri 10:18:00 PM 28.4339 116.2905 213° Southwest  Level Estimated
Fri 10:19:00 PM 28.3387 116.2195 213° Southwest  Level Estimated
Fri 10:20:00 PM 28.2434 116.1486 213° Southwest  Level Estimated
Fri 10:21:00 PM 28.1481 116.0778 213° Southwest  Level Estimated
Fri 10:22:00 PM 28.0528 116.0071 213° Southwest  Level Estimated
Fri 10:23:00 PM 27.9574 115.9366 213° Southwest  Level Estimated
Fri 10:24:00 PM 27.8620 115.8662 213° Southwest  Level Estimated
Fri 10:25:00 PM 27.7665 115.7960 213° Southwest  Level Estimated
Fri 10:26:00 PM 27.6710 115.7258 213° Southwest  Level Estimated
Fri 10:27:00 PM 27.5755 115.6558 213° Southwest  Level Estimated
Fri 10:28:00 PM 27.4800 115.5859 213° Southwest  Level Estimated
Fri 10:29:00 PM 27.3844 115.5161 213° Southwest  Level Estimated
Fri 10:30:00 PM 27.2888 115.4464 213° Southwest  Level Estimated
Fri 10:31:00 PM 27.1931 115.3769 213° Southwest  Level Estimated
Fri 10:32:00 PM 27.0974 115.3075 213° Southwest  Level Estimated
Fri 10:33:00 PM 27.0017 115.2382 213° Southwest  Level Estimated
Fri 10:34:00 PM 26.9059 115.1690 213° Southwest  Level Estimated
Fri 10:35:00 PM 26.8102 115.0999 213° Southwest  Level Estimated
Fri 10:36:00 PM 26.7143 115.0310 213° Southwest  Level Estimated
Fri 10:37:00 PM 26.6185 114.9621 213° Southwest  Level Estimated
Fri 10:38:00 PM 26.5226 114.8934 213° Southwest  Level Estimated
Fri 10:39:00 PM 26.4267 114.8248 213° Southwest  Level Estimated
Fri 10:40:00 PM 26.3307 114.7563 213° Southwest  Level Estimated
Fri 10:41:00 PM 26.2347 114.6879 213° Southwest  Level Estimated
Fri 10:42:00 PM 26.1387 114.6197 213° Southwest  Level Estimated
Fri 10:43:00 PM 26.0426 114.5515 213° Southwest  Level Estimated
Fri 10:44:00 PM 25.9466 114.4835 212° Southwest  Level Estimated
Fri 10:45:00 PM 25.8504 114.4156 212° Southwest  Level Estimated
Fri 10:46:00 PM 25.7543 114.3477 212° Southwest  Level Estimated
Fri 10:47:00 PM 25.6581 114.2800 212° Southwest  Level Estimated
Fri 10:48:00 PM 25.5619 114.2124 212° Southwest  Level Estimated
Fri 10:49:00 PM 25.4657 114.1449 212° Southwest  Level Estimated
Fri 10:50:00 PM 25.3694 114.0775 212° Southwest  Level Estimated
Fri 10:51:00 PM 25.2731 114.0103 212° Southwest  Level Estimated
Fri 10:52:00 PM 25.1768 113.9431 212° Southwest  Level Estimated
Fri 10:53:00 PM 25.0804 113.8760 212° Southwest  Level Estimated
Fri 10:54:00 PM 24.9840 113.8091 212° Southwest  Level Estimated
Fri 10:55:00 PM 24.8876 113.7422 212° Southwest  Level Estimated
Fri 10:56:00 PM 24.7911 113.6755 212° Southwest  Level Estimated
Fri 10:57:00 PM 24.6947 113.6088 212° Southwest  Level Estimated
Fri 10:58:00 PM 24.5981 113.5423 212° Southwest  Level Estimated
Fri 10:59:00 PM 24.5016 113.4758 212° Southwest  Level Estimated
Fri 11:00:00 PM 24.4050 113.4095 212° Southwest  Level Estimated
Fri 11:01:00 PM 24.3084 113.3432 212° Southwest  Level Estimated
Fri 11:02:00 PM 24.2118 113.2771 212° Southwest  Level Estimated
Fri 11:03:00 PM 24.1151 113.2111 212° Southwest  Level Estimated
Fri 11:04:00 PM 24.0184 113.1451 212° Southwest  Level Estimated
Fri 11:05:00 PM 23.9217 113.0793 212° Southwest  Level Estimated
Fri 11:06:00 PM 23.8250 113.0135 212° Southwest  Level Estimated
Fri 11:07:00 PM 23.7282 112.9479 212° Southwest  Level Estimated
Fri 11:08:00 PM 23.6314 112.8824 212° Southwest  Level Estimated
Fri 11:09:00 PM 23.5346 112.8169 212° Southwest  Level Estimated
Fri 11:10:00 PM 23.4377 112.7516 212° Southwest  Level Estimated
Fri 11:11:00 PM 23.3409 112.6863 212° Southwest  Level Estimated
Fri 11:12:00 PM 23.2440 112.6212 212° Southwest  Level Estimated
Fri 11:13:00 PM 23.1470 112.5561 212° Southwest  Level Estimated
Fri 11:14:00 PM 23.0501 112.4911 212° Southwest  Level Estimated
Fri 11:15:00 PM 22.9531 112.4262 212° Southwest  Level Estimated
Fri 11:16:00 PM 22.8561 112.3615 212° Southwest  Level Estimated
Fri 11:17:00 PM 22.7590 112.2968 212° Southwest  Level Estimated
Fri 11:18:00 PM 22.6620 112.2322 212° Southwest  Level Estimated
Fri 11:19:00 PM 22.5649 112.1677 212° Southwest  Level Estimated
Fri 11:20:00 PM 22.4678 112.1032 212° Southwest  Level Estimated
Fri 11:21:00 PM 22.3706 112.0389 211° Southwest  Level Estimated
Fri 11:22:00 PM 22.2734 111.9747 211° Southwest  Level Estimated
Fri 11:23:00 PM 22.1763 111.9105 211° Southwest  Level Estimated
Fri 11:24:00 PM 22.0790 111.8465 211° Southwest  Level Estimated
Fri 11:25:00 PM 21.9818 111.7825 211° Southwest  Level Estimated
Fri 11:26:00 PM 21.8845 111.7186 211° Southwest  Level Estimated
Fri 11:27:00 PM 21.7872 111.6548 211° Southwest  Level Estimated
Fri 11:28:00 PM 21.6899 111.5911 211° Southwest  Level Estimated
Fri 11:29:00 PM 21.5926 111.5275 211° Southwest  Level Estimated
Fri 11:30:00 PM 21.4952 111.4640 211° Southwest  Level Estimated
Fri 11:31:00 PM 21.3978 111.4005 211° Southwest  Level Estimated
Fri 11:32:00 PM 21.3004 111.3371 211° Southwest  Level Estimated
Fri 11:33:00 PM 21.2030 111.2738 211° Southwest  Level Estimated
Fri 11:34:00 PM 21.1055 111.2106 211° Southwest  Level Estimated
Fri 11:35:00 PM 21.0080 111.1475 211° Southwest  Level Estimated
Fri 11:36:00 PM 20.9105 111.0845 211° Southwest  Level Estimated
Fri 11:37:00 PM 20.8130 111.0215 211° Southwest  Level Estimated
Fri 11:38:00 PM 20.7154 110.9587 211° Southwest  Level Estimated
Fri 11:39:00 PM 20.6178 110.8959 211° Southwest  Level Estimated
Fri 11:40:00 PM 20.5203 110.8332 211° Southwest  Level Estimated
Fri 11:41:00 PM 20.4226 110.7705 211° Southwest  Level Estimated
Fri 11:42:00 PM 20.3250 110.7080 211° Southwest  Level Estimated
Fri 11:43:00 PM 20.2273 110.6455 211° Southwest  Level Estimated
Fri 11:44:00 PM 20.1296 110.5831 211° Southwest  Level Estimated
Fri 11:45:00 PM 20.0319 110.5208 211° Southwest  Level Estimated
Fri 11:46:00 PM 19.9349 110.4590 211° Southwest  Level Estimated
Fri 11:47:00 PM 19.9349 110.4590 167° South  Level Estimated
Fri 11:48:00 PM 19.9349 110.4590 167° South  Level Estimated
Fri 11:49:00 PM 19.9349 110.4590 167° South  Level Estimated
Fri 11:50:00 PM 19.9349 110.4590 167° South  Level Estimated
Fri 11:51:00 PM 19.9349 110.4590 167° South  Level Estimated
Fri 11:52:00 PM 19.9349 110.4590 167° South  Level Estimated
Fri 11:53:00 PM 19.9349 110.4590 167° South  Level Estimated
Fri 11:54:00 PM 19.9349 110.4590 167° South  Level Estimated
Fri 11:55:00 PM 19.9349 110.4590 167° South  Level Estimated

Login

Don't have an account? Register now (free) for customized features, flight alerts, and more!